sensor_id;sensor_type;location;lat;lon;timestamp;P1;durP1;ratioP1;P2;durP2;ratioP2
2434;SDS011;1228;51.022;6.764;2023-05-07T00:00:18;9.53;;;8.80;;
2434;SDS011;1228;51.022;6.764;2023-05-07T00:02:44;9.23;;;8.63;;
2434;SDS011;1228;51.022;6.764;2023-05-07T00:05:10;9.70;;;8.90;;
2434;SDS011;1228;51.022;6.764;2023-05-07T00:07:36;8.23;;;7.63;;
2434;SDS011;1228;51.022;6.764;2023-05-07T00:10:02;8.80;;;8.07;;
2434;SDS011;1228;51.022;6.764;2023-05-07T00:12:28;8.93;;;8.23;;
2434;SDS011;1228;51.022;6.764;2023-05-07T00:14:58;9.77;;;8.80;;
2434;SDS011;1228;51.022;6.764;2023-05-07T00:17:27;8.77;;;8.07;;
2434;SDS011;1228;51.022;6.764;2023-05-07T00:19:53;9.73;;;8.93;;
2434;SDS011;1228;51.022;6.764;2023-05-07T00:22:18;9.27;;;8.57;;
2434;SDS011;1228;51.022;6.764;2023-05-07T00:24:44;9.20;;;8.50;;
2434;SDS011;1228;51.022;6.764;2023-05-07T00:27:10;9.63;;;8.83;;
2434;SDS011;1228;51.022;6.764;2023-05-07T00:29:35;8.90;;;8.20;;
2434;SDS011;1228;51.022;6.764;2023-05-07T00:32:01;9.20;;;8.50;;
2434;SDS011;1228;51.022;6.764;2023-05-07T00:34:27;9.20;;;8.33;;
2434;SDS011;1228;51.022;6.764;2023-05-07T00:36:52;8.40;;;7.57;;
2434;SDS011;1228;51.022;6.764;2023-05-07T00:39:18;9.17;;;8.43;;
2434;SDS011;1228;51.022;6.764;2023-05-07T00:41:44;8.40;;;7.80;;
2434;SDS011;1228;51.022;6.764;2023-05-07T00:44:09;9.93;;;9.13;;
2434;SDS011;1228;51.022;6.764;2023-05-07T00:46:35;9.63;;;8.07;;
2434;SDS011;1228;51.022;6.764;2023-05-07T00:49:01;9.40;;;8.50;;
2434;SDS011;1228;51.022;6.764;2023-05-07T00:51:27;8.73;;;7.93;;
2434;SDS011;1228;51.022;6.764;2023-05-07T00:53:53;9.07;;;8.37;;
2434;SDS011;1228;51.022;6.764;2023-05-07T00:56:20;8.53;;;7.83;;
2434;SDS011;1228;51.022;6.764;2023-05-07T00:58:47;9.30;;;8.60;;
2434;SDS011;1228;51.022;6.764;2023-05-07T01:01:13;8.83;;;8.03;;
2434;SDS011;1228;51.022;6.764;2023-05-07T01:03:41;9.03;;;8.23;;
2434;SDS011;1228;51.022;6.764;2023-05-07T01:06:07;7.73;;;7.20;;
2434;SDS011;1228;51.022;6.764;2023-05-07T01:08:34;8.47;;;7.87;;
2434;SDS011;1228;51.022;6.764;2023-05-07T01:11:01;8.97;;;8.17;;
2434;SDS011;1228;51.022;6.764;2023-05-07T01:13:28;9.17;;;8.30;;
2434;SDS011;1228;51.022;6.764;2023-05-07T01:15:54;8.77;;;8.07;;
2434;SDS011;1228;51.022;6.764;2023-05-07T01:18:20;8.90;;;8.30;;
2434;SDS011;1228;51.022;6.764;2023-05-07T01:20:46;8.70;;;7.90;;
2434;SDS011;1228;51.022;6.764;2023-05-07T01:23:12;8.30;;;7.60;;
2434;SDS011;1228;51.022;6.764;2023-05-07T01:25:38;9.07;;;8.23;;
2434;SDS011;1228;51.022;6.764;2023-05-07T01:28:03;8.90;;;8.17;;
2434;SDS011;1228;51.022;6.764;2023-05-07T01:30:30;9.50;;;8.70;;
2434;SDS011;1228;51.022;6.764;2023-05-07T01:33:01;8.50;;;7.90;;
2434;SDS011;1228;51.022;6.764;2023-05-07T01:35:43;8.87;;;8.17;;
2434;SDS011;1228;51.022;6.764;2023-05-07T01:38:12;9.37;;;8.57;;
2434;SDS011;1228;51.022;6.764;2023-05-07T01:40:38;8.90;;;8.10;;
2434;SDS011;1228;51.022;6.764;2023-05-07T01:43:04;9.23;;;8.43;;
2434;SDS011;1228;51.022;6.764;2023-05-07T01:45:30;8.70;;;7.90;;
2434;SDS011;1228;51.022;6.764;2023-05-07T01:47:57;8.67;;;7.97;;
2434;SDS011;1228;51.022;6.764;2023-05-07T01:50:24;9.00;;;8.23;;
2434;SDS011;1228;51.022;6.764;2023-05-07T01:52:50;8.53;;;7.83;;
2434;SDS011;1228;51.022;6.764;2023-05-07T01:55:17;8.30;;;7.60;;
2434;SDS011;1228;51.022;6.764;2023-05-07T01:57:43;8.83;;;8.10;;
2434;SDS011;1228;51.022;6.764;2023-05-07T02:00:08;8.50;;;7.90;;
2434;SDS011;1228;51.022;6.764;2023-05-07T02:02:34;8.80;;;8.10;;
2434;SDS011;1228;51.022;6.764;2023-05-07T02:05:00;9.10;;;8.40;;
2434;SDS011;1228;51.022;6.764;2023-05-07T02:07:26;8.87;;;8.23;;
2434;SDS011;1228;51.022;6.764;2023-05-07T02:09:53;8.70;;;8.00;;
2434;SDS011;1228;51.022;6.764;2023-05-07T02:12:20;8.83;;;8.20;;
2434;SDS011;1228;51.022;6.764;2023-05-07T02:14:46;7.90;;;7.30;;
2434;SDS011;1228;51.022;6.764;2023-05-07T02:17:12;8.20;;;7.60;;
2434;SDS011;1228;51.022;6.764;2023-05-07T02:19:37;8.53;;;7.90;;
2434;SDS011;1228;51.022;6.764;2023-05-07T02:22:03;8.13;;;7.53;;
2434;SDS011;1228;51.022;6.764;2023-05-07T02:24:28;8.37;;;7.77;;
2434;SDS011;1228;51.022;6.764;2023-05-07T02:26:54;9.00;;;8.30;;
2434;SDS011;1228;51.022;6.764;2023-05-07T02:29:20;8.23;;;7.53;;
2434;SDS011;1228;51.022;6.764;2023-05-07T02:31:46;8.93;;;8.23;;
2434;SDS011;1228;51.022;6.764;2023-05-07T02:34:15;8.47;;;7.77;;
2434;SDS011;1228;51.022;6.764;2023-05-07T02:36:44;7.93;;;7.33;;
2434;SDS011;1228;51.022;6.764;2023-05-07T02:39:12;8.60;;;7.73;;
2434;SDS011;1228;51.022;6.764;2023-05-07T02:41:38;8.83;;;8.13;;
2434;SDS011;1228;51.022;6.764;2023-05-07T02:44:03;9.67;;;8.77;;
2434;SDS011;1228;51.022;6.764;2023-05-07T02:46:29;8.30;;;7.70;;
2434;SDS011;1228;51.022;6.764;2023-05-07T02:48:55;9.47;;;8.70;;
2434;SDS011;1228;51.022;6.764;2023-05-07T02:51:21;8.73;;;7.93;;
2434;SDS011;1228;51.022;6.764;2023-05-07T02:53:47;10.37;;;9.47;;
2434;SDS011;1228;51.022;6.764;2023-05-07T02:56:13;9.77;;;8.97;;
2434;SDS011;1228;51.022;6.764;2023-05-07T02:58:39;10.27;;;9.37;;
2434;SDS011;1228;51.022;6.764;2023-05-07T03:01:05;9.17;;;8.37;;
2434;SDS011;1228;51.022;6.764;2023-05-07T03:03:31;10.03;;;9.03;;
2434;SDS011;1228;51.022;6.764;2023-05-07T03:05:57;10.13;;;9.33;;
2434;SDS011;1228;51.022;6.764;2023-05-07T03:08:22;9.50;;;8.80;;
2434;SDS011;1228;51.022;6.764;2023-05-07T03:10:48;11.20;;;9.03;;
2434;SDS011;1228;51.022;6.764;2023-05-07T03:13:14;9.40;;;8.50;;
2434;SDS011;1228;51.022;6.764;2023-05-07T03:15:40;9.50;;;8.70;;
2434;SDS011;1228;51.022;6.764;2023-05-07T03:18:05;9.03;;;8.30;;
2434;SDS011;1228;51.022;6.764;2023-05-07T03:20:31;9.63;;;8.73;;
2434;SDS011;1228;51.022;6.764;2023-05-07T03:22:57;9.47;;;8.77;;
2434;SDS011;1228;51.022;6.764;2023-05-07T03:25:22;9.57;;;8.77;;
2434;SDS011;1228;51.022;6.764;2023-05-07T03:27:48;9.43;;;8.73;;
2434;SDS011;1228;51.022;6.764;2023-05-07T03:30:14;9.10;;;8.40;;
2434;SDS011;1228;51.022;6.764;2023-05-07T03:32:39;9.57;;;8.77;;
2434;SDS011;1228;51.022;6.764;2023-05-07T03:35:05;9.03;;;8.43;;
2434;SDS011;1228;51.022;6.764;2023-05-07T03:37:31;8.10;;;7.40;;
2434;SDS011;1228;51.022;6.764;2023-05-07T03:39:56;7.83;;;7.17;;
2434;SDS011;1228;51.022;6.764;2023-05-07T03:42:22;8.07;;;7.37;;
2434;SDS011;1228;51.022;6.764;2023-05-07T03:44:48;7.53;;;7.03;;
2434;SDS011;1228;51.022;6.764;2023-05-07T03:47:13;7.40;;;6.70;;
2434;SDS011;1228;51.022;6.764;2023-05-07T03:49:39;9.53;;;7.90;;
2434;SDS011;1228;51.022;6.764;2023-05-07T03:52:05;8.10;;;7.40;;
2434;SDS011;1228;51.022;6.764;2023-05-07T03:54:31;9.90;;;7.40;;
2434;SDS011;1228;51.022;6.764;2023-05-07T03:56:57;8.07;;;7.27;;
2434;SDS011;1228;51.022;6.764;2023-05-07T03:59:22;11.87;;;7.50;;
2434;SDS011;1228;51.022;6.764;2023-05-07T04:01:48;7.73;;;7.03;;
2434;SDS011;1228;51.022;6.764;2023-05-07T04:04:14;9.17;;;7.20;;
2434;SDS011;1228;51.022;6.764;2023-05-07T04:06:39;7.80;;;7.20;;
2434;SDS011;1228;51.022;6.764;2023-05-07T04:09:06;7.60;;;6.97;;
2434;SDS011;1228;51.022;6.764;2023-05-07T04:11:31;7.83;;;7.23;;
2434;SDS011;1228;51.022;6.764;2023-05-07T04:13:57;8.33;;;7.63;;
2434;SDS011;1228;51.022;6.764;2023-05-07T04:16:23;8.87;;;7.80;;
2434;SDS011;1228;51.022;6.764;2023-05-07T04:18:48;8.20;;;7.50;;
2434;SDS011;1228;51.022;6.764;2023-05-07T04:21:15;8.07;;;7.47;;
2434;SDS011;1228;51.022;6.764;2023-05-07T04:23:41;8.50;;;7.73;;
2434;SDS011;1228;51.022;6.764;2023-05-07T04:26:07;12.10;;;7.67;;
2434;SDS011;1228;51.022;6.764;2023-05-07T04:28:32;8.20;;;7.50;;
2434;SDS011;1228;51.022;6.764;2023-05-07T04:30:59;7.97;;;7.17;;
2434;SDS011;1228;51.022;6.764;2023-05-07T04:33:24;7.90;;;7.30;;
2434;SDS011;1228;51.022;6.764;2023-05-07T04:35:50;8.67;;;7.87;;
2434;SDS011;1228;51.022;6.764;2023-05-07T04:38:15;8.90;;;8.10;;
2434;SDS011;1228;51.022;6.764;2023-05-07T04:40:41;8.27;;;7.67;;
2434;SDS011;1228;51.022;6.764;2023-05-07T04:43:07;9.27;;;8.37;;
2434;SDS011;1228;51.022;6.764;2023-05-07T04:45:34;9.13;;;8.33;;
2434;SDS011;1228;51.022;6.764;2023-05-07T04:48:00;8.47;;;7.77;;
2434;SDS011;1228;51.022;6.764;2023-05-07T04:50:26;8.33;;;7.60;;
2434;SDS011;1228;51.022;6.764;2023-05-07T04:52:51;8.40;;;7.70;;
2434;SDS011;1228;51.022;6.764;2023-05-07T04:55:17;8.60;;;7.90;;
2434;SDS011;1228;51.022;6.764;2023-05-07T04:57:43;8.80;;;8.03;;
2434;SDS011;1228;51.022;6.764;2023-05-07T05:00:08;7.80;;;7.00;;
2434;SDS011;1228;51.022;6.764;2023-05-07T05:02:35;8.17;;;7.57;;
2434;SDS011;1228;51.022;6.764;2023-05-07T05:05:01;7.73;;;7.03;;
2434;SDS011;1228;51.022;6.764;2023-05-07T05:07:27;8.87;;;7.90;;
2434;SDS011;1228;51.022;6.764;2023-05-07T05:09:53;8.87;;;8.23;;
2434;SDS011;1228;51.022;6.764;2023-05-07T05:12:19;8.47;;;7.77;;
2434;SDS011;1228;51.022;6.764;2023-05-07T05:14:45;7.90;;;7.30;;
2434;SDS011;1228;51.022;6.764;2023-05-07T05:17:10;7.77;;;6.97;;
2434;SDS011;1228;51.022;6.764;2023-05-07T05:19:36;7.57;;;6.97;;
2434;SDS011;1228;51.022;6.764;2023-05-07T05:22:02;7.53;;;6.83;;
2434;SDS011;1228;51.022;6.764;2023-05-07T05:24:28;7.50;;;6.90;;
2434;SDS011;1228;51.022;6.764;2023-05-07T05:26:55;12.90;;;6.77;;
2434;SDS011;1228;51.022;6.764;2023-05-07T05:29:21;7.20;;;6.70;;
2434;SDS011;1228;51.022;6.764;2023-05-07T05:31:46;7.37;;;6.50;;
2434;SDS011;1228;51.022;6.764;2023-05-07T05:34:12;6.47;;;5.97;;
2434;SDS011;1228;51.022;6.764;2023-05-07T05:36:38;6.53;;;6.03;;
2434;SDS011;1228;51.022;6.764;2023-05-07T05:39:03;6.33;;;5.93;;
2434;SDS011;1228;51.022;6.764;2023-05-07T05:41:29;8.90;;;8.40;;
2434;SDS011;1228;51.022;6.764;2023-05-07T05:43:55;6.83;;;6.40;;
2434;SDS011;1228;51.022;6.764;2023-05-07T05:46:21;7.60;;;7.10;;
2434;SDS011;1228;51.022;6.764;2023-05-07T05:48:46;6.60;;;6.20;;
2434;SDS011;1228;51.022;6.764;2023-05-07T05:51:12;6.77;;;6.27;;
2434;SDS011;1228;51.022;6.764;2023-05-07T05:53:37;6.90;;;6.40;;
2434;SDS011;1228;51.022;6.764;2023-05-07T05:56:03;6.13;;;5.73;;
2434;SDS011;1228;51.022;6.764;2023-05-07T05:58:29;6.43;;;6.00;;
2434;SDS011;1228;51.022;6.764;2023-05-07T06:00:55;7.67;;;6.83;;
2434;SDS011;1228;51.022;6.764;2023-05-07T06:03:21;7.73;;;7.27;;
2434;SDS011;1228;51.022;6.764;2023-05-07T06:05:47;6.90;;;6.40;;
2434;SDS011;1228;51.022;6.764;2023-05-07T06:08:12;6.37;;;5.93;;
2434;SDS011;1228;51.022;6.764;2023-05-07T06:10:38;7.30;;;6.70;;
2434;SDS011;1228;51.022;6.764;2023-05-07T06:13:04;6.83;;;6.43;;
2434;SDS011;1228;51.022;6.764;2023-05-07T06:15:30;6.10;;;5.50;;
2434;SDS011;1228;51.022;6.764;2023-05-07T06:17:55;6.77;;;6.17;;
2434;SDS011;1228;51.022;6.764;2023-05-07T06:20:22;7.93;;;7.43;;
2434;SDS011;1228;51.022;6.764;2023-05-07T06:22:48;6.30;;;5.90;;
2434;SDS011;1228;51.022;6.764;2023-05-07T06:25:14;8.57;;;7.97;;
2434;SDS011;1228;51.022;6.764;2023-05-07T06:27:40;5.63;;;5.33;;
2434;SDS011;1228;51.022;6.764;2023-05-07T06:30:06;6.37;;;5.97;;
2434;SDS011;1228;51.022;6.764;2023-05-07T06:32:32;7.57;;;7.17;;
2434;SDS011;1228;51.022;6.764;2023-05-07T06:34:57;8.37;;;7.87;;
2434;SDS011;1228;51.022;6.764;2023-05-07T06:37:23;6.00;;;5.60;;
2434;SDS011;1228;51.022;6.764;2023-05-07T06:39:49;6.73;;;6.33;;
2434;SDS011;1228;51.022;6.764;2023-05-07T06:42:14;6.37;;;6.00;;
2434;SDS011;1228;51.022;6.764;2023-05-07T06:44:40;6.90;;;6.50;;
2434;SDS011;1228;51.022;6.764;2023-05-07T06:47:05;5.93;;;5.47;;
2434;SDS011;1228;51.022;6.764;2023-05-07T06:49:31;5.50;;;5.20;;
2434;SDS011;1228;51.022;6.764;2023-05-07T06:51:57;5.57;;;5.27;;
2434;SDS011;1228;51.022;6.764;2023-05-07T06:54:23;6.43;;;5.93;;
2434;SDS011;1228;51.022;6.764;2023-05-07T06:56:49;6.00;;;5.70;;
2434;SDS011;1228;51.022;6.764;2023-05-07T06:59:15;7.20;;;6.70;;
2434;SDS011;1228;51.022;6.764;2023-05-07T07:01:40;5.40;;;5.10;;
2434;SDS011;1228;51.022;6.764;2023-05-07T07:04:06;6.53;;;6.03;;
2434;SDS011;1228;51.022;6.764;2023-05-07T07:06:32;5.90;;;5.57;;
2434;SDS011;1228;51.022;6.764;2023-05-07T07:08:58;5.10;;;4.80;;
2434;SDS011;1228;51.022;6.764;2023-05-07T07:11:24;4.40;;;4.20;;
2434;SDS011;1228;51.022;6.764;2023-05-07T07:13:50;5.75;;;5.45;;
2434;SDS011;1228;51.022;6.764;2023-05-07T07:16:16;4.97;;;4.68;;
2434;SDS011;1228;51.022;6.764;2023-05-07T07:18:43;5.32;;;5.03;;
2434;SDS011;1228;51.022;6.764;2023-05-07T07:21:08;4.47;;;4.18;;
2434;SDS011;1228;51.022;6.764;2023-05-07T07:23:34;5.13;;;4.75;;
2434;SDS011;1228;51.022;6.764;2023-05-07T07:26:00;5.35;;;5.07;;
2434;SDS011;1228;51.022;6.764;2023-05-07T07:28:25;5.53;;;5.13;;
2434;SDS011;1228;51.022;6.764;2023-05-07T07:30:51;5.35;;;5.15;;
2434;SDS011;1228;51.022;6.764;2023-05-07T07:33:16;5.05;;;4.85;;
2434;SDS011;1228;51.022;6.764;2023-05-07T07:35:42;4.55;;;4.35;;
2434;SDS011;1228;51.022;6.764;2023-05-07T07:38:08;3.70;;;3.50;;
2434;SDS011;1228;51.022;6.764;2023-05-07T07:40:36;4.03;;;3.83;;
2434;SDS011;1228;51.022;6.764;2023-05-07T07:43:02;3.95;;;3.75;;
2434;SDS011;1228;51.022;6.764;2023-05-07T07:45:28;4.30;;;4.10;;
2434;SDS011;1228;51.022;6.764;2023-05-07T07:47:54;3.67;;;3.47;;
2434;SDS011;1228;51.022;6.764;2023-05-07T07:50:19;3.60;;;3.40;;
2434;SDS011;1228;51.022;6.764;2023-05-07T07:52:45;4.65;;;4.45;;
2434;SDS011;1228;51.022;6.764;2023-05-07T07:55:11;4.35;;;4.05;;
2434;SDS011;1228;51.022;6.764;2023-05-07T07:57:37;4.22;;;3.85;;
2434;SDS011;1228;51.022;6.764;2023-05-07T08:00:02;4.32;;;4.13;;
2434;SDS011;1228;51.022;6.764;2023-05-07T08:02:28;4.80;;;4.60;;
2434;SDS011;1228;51.022;6.764;2023-05-07T08:04:54;5.03;;;4.82;;
2434;SDS011;1228;51.022;6.764;2023-05-07T08:07:20;4.85;;;4.65;;
2434;SDS011;1228;51.022;6.764;2023-05-07T08:09:47;4.20;;;4.00;;
2434;SDS011;1228;51.022;6.764;2023-05-07T08:12:13;3.92;;;3.72;;
2434;SDS011;1228;51.022;6.764;2023-05-07T08:14:39;3.75;;;3.55;;
2434;SDS011;1228;51.022;6.764;2023-05-07T08:17:06;3.33;;;3.15;;
2434;SDS011;1228;51.022;6.764;2023-05-07T08:19:31;3.67;;;3.47;;
2434;SDS011;1228;51.022;6.764;2023-05-07T08:21:57;3.28;;;3.08;;
2434;SDS011;1228;51.022;6.764;2023-05-07T08:24:22;3.42;;;3.22;;
2434;SDS011;1228;51.022;6.764;2023-05-07T08:26:48;3.92;;;3.72;;
2434;SDS011;1228;51.022;6.764;2023-05-07T08:29:14;3.40;;;3.22;;
2434;SDS011;1228;51.022;6.764;2023-05-07T08:31:40;3.60;;;3.40;;
2434;SDS011;1228;51.022;6.764;2023-05-07T08:34:06;3.60;;;3.40;;
2434;SDS011;1228;51.022;6.764;2023-05-07T08:36:31;3.72;;;3.53;;
2434;SDS011;1228;51.022;6.764;2023-05-07T08:38:57;3.63;;;3.50;;
2434;SDS011;1228;51.022;6.764;2023-05-07T08:41:24;3.00;;;2.90;;
2434;SDS011;1228;51.022;6.764;2023-05-07T08:43:50;3.50;;;3.30;;
2434;SDS011;1228;51.022;6.764;2023-05-07T08:46:22;3.60;;;3.40;;
2434;SDS011;1228;51.022;6.764;2023-05-07T08:48:48;3.58;;;3.28;;
2434;SDS011;1228;51.022;6.764;2023-05-07T08:51:16;3.40;;;3.20;;
2434;SDS011;1228;51.022;6.764;2023-05-07T08:53:44;3.17;;;3.08;;
2434;SDS011;1228;51.022;6.764;2023-05-07T08:56:11;3.78;;;3.58;;
2434;SDS011;1228;51.022;6.764;2023-05-07T08:58:38;3.25;;;3.05;;
2434;SDS011;1228;51.022;6.764;2023-05-07T09:01:07;3.65;;;3.45;;
2434;SDS011;1228;51.022;6.764;2023-05-07T09:03:34;3.70;;;3.50;;
2434;SDS011;1228;51.022;6.764;2023-05-07T09:06:01;3.38;;;3.17;;
2434;SDS011;1228;51.022;6.764;2023-05-07T09:08:27;3.60;;;3.40;;
2434;SDS011;1228;51.022;6.764;2023-05-07T09:10:53;3.65;;;3.42;;
2434;SDS011;1228;51.022;6.764;2023-05-07T09:13:19;4.40;;;4.20;;
2434;SDS011;1228;51.022;6.764;2023-05-07T09:15:45;3.35;;;3.25;;
2434;SDS011;1228;51.022;6.764;2023-05-07T09:18:11;5.03;;;4.72;;
2434;SDS011;1228;51.022;6.764;2023-05-07T09:20:38;4.43;;;4.22;;
2434;SDS011;1228;51.022;6.764;2023-05-07T09:23:04;4.05;;;3.85;;
2434;SDS011;1228;51.022;6.764;2023-05-07T09:25:32;4.45;;;4.25;;
2434;SDS011;1228;51.022;6.764;2023-05-07T09:27:58;4.18;;;3.95;;
2434;SDS011;1228;51.022;6.764;2023-05-07T09:30:29;3.08;;;2.95;;
2434;SDS011;1228;51.022;6.764;2023-05-07T09:32:58;3.03;;;2.92;;
2434;SDS011;1228;51.022;6.764;2023-05-07T09:35:25;3.70;;;3.40;;
2434;SDS011;1228;51.022;6.764;2023-05-07T09:37:57;4.10;;;3.90;;
2434;SDS011;1228;51.022;6.764;2023-05-07T09:40:28;3.80;;;3.60;;
2434;SDS011;1228;51.022;6.764;2023-05-07T09:42:54;3.45;;;3.25;;
2434;SDS011;1228;51.022;6.764;2023-05-07T09:45:26;2.83;;;2.72;;
2434;SDS011;1228;51.022;6.764;2023-05-07T09:47:54;3.20;;;3.10;;
2434;SDS011;1228;51.022;6.764;2023-05-07T09:50:25;3.97;;;3.78;;
2434;SDS011;1228;51.022;6.764;2023-05-07T09:52:53;4.47;;;4.28;;
2434;SDS011;1228;51.022;6.764;2023-05-07T09:55:20;3.50;;;3.30;;
2434;SDS011;1228;51.022;6.764;2023-05-07T09:57:47;2.50;;;2.35;;
2434;SDS011;1228;51.022;6.764;2023-05-07T10:00:15;2.85;;;2.75;;
2434;SDS011;1228;51.022;6.764;2023-05-07T10:02:43;2.85;;;2.65;;
2434;SDS011;1228;51.022;6.764;2023-05-07T10:05:14;3.00;;;2.90;;
2434;SDS011;1228;51.022;6.764;2023-05-07T10:07:40;3.00;;;2.70;;
2434;SDS011;1228;51.022;6.764;2023-05-07T10:10:06;3.00;;;2.88;;
2434;SDS011;1228;51.022;6.764;2023-05-07T10:12:32;2.53;;;2.38;;
2434;SDS011;1228;51.022;6.764;2023-05-07T10:15:04;2.70;;;2.50;;
2434;SDS011;1228;51.022;6.764;2023-05-07T10:17:38;2.95;;;2.75;;
2434;SDS011;1228;51.022;6.764;2023-05-07T10:20:04;2.50;;;2.30;;
2434;SDS011;1228;51.022;6.764;2023-05-07T10:22:37;2.45;;;2.35;;
2434;SDS011;1228;51.022;6.764;2023-05-07T10:25:13;2.33;;;2.22;;
2434;SDS011;1228;51.022;6.764;2023-05-07T10:27:57;2.88;;;2.67;;
2434;SDS011;1228;51.022;6.764;2023-05-07T10:33:27;2.88;;;2.67;;
2434;SDS011;1228;51.022;6.764;2023-05-07T10:35:58;2.30;;;2.20;;
2434;SDS011;1228;51.022;6.764;2023-05-07T10:38:26;2.50;;;2.40;;
2434;SDS011;1228;51.022;6.764;2023-05-07T10:40:52;2.70;;;2.60;;
2434;SDS011;1228;51.022;6.764;2023-05-07T10:43:18;2.88;;;2.67;;
2434;SDS011;1228;51.022;6.764;2023-05-07T10:45:49;2.40;;;2.20;;
2434;SDS011;1228;51.022;6.764;2023-05-07T10:51:30;2.58;;;2.47;;
2434;SDS011;1228;51.022;6.764;2023-05-07T10:56:38;2.90;;;2.78;;
2434;SDS011;1228;51.022;6.764;2023-05-07T11:04:15;3.40;;;3.20;;
2434;SDS011;1228;51.022;6.764;2023-05-07T11:06:42;2.90;;;2.72;;
2434;SDS011;1228;51.022;6.764;2023-05-07T11:10:15;2.95;;;2.83;;
2434;SDS011;1228;51.022;6.764;2023-05-07T11:12:16;2.90;;;2.80;;
2434;SDS011;1228;51.022;6.764;2023-05-07T11:15:09;3.60;;;3.40;;
2434;SDS011;1228;51.022;6.764;2023-05-07T11:18:09;3.25;;;3.15;;
2434;SDS011;1228;51.022;6.764;2023-05-07T11:26:06;3.78;;;3.58;;
2434;SDS011;1228;51.022;6.764;2023-05-07T11:28:37;3.17;;;3.08;;
2434;SDS011;1228;51.022;6.764;2023-05-07T11:31:03;3.17;;;3.08;;
2434;SDS011;1228;51.022;6.764;2023-05-07T11:33:29;3.88;;;3.60;;
2434;SDS011;1228;51.022;6.764;2023-05-07T11:35:55;3.47;;;3.28;;
2434;SDS011;1228;51.022;6.764;2023-05-07T11:38:22;3.63;;;3.42;;
2434;SDS011;1228;51.022;6.764;2023-05-07T11:40:48;3.65;;;3.45;;
2434;SDS011;1228;51.022;6.764;2023-05-07T11:43:17;3.97;;;3.78;;
2434;SDS011;1228;51.022;6.764;2023-05-07T11:45:44;5.18;;;4.95;;
2434;SDS011;1228;51.022;6.764;2023-05-07T11:48:13;4.13;;;3.92;;
2434;SDS011;1228;51.022;6.764;2023-05-07T11:53:18;2.72;;;2.63;;
2434;SDS011;1228;51.022;6.764;2023-05-07T11:55:45;2.53;;;2.42;;
2434;SDS011;1228;51.022;6.764;2023-05-07T11:58:12;2.63;;;2.53;;
2434;SDS011;1228;51.022;6.764;2023-05-07T12:00:51;2.70;;;2.50;;
2434;SDS011;1228;51.022;6.764;2023-05-07T12:03:18;2.90;;;2.80;;
2434;SDS011;1228;51.022;6.764;2023-05-07T12:05:44;3.13;;;3.00;;
2434;SDS011;1228;51.022;6.764;2023-05-07T12:08:17;2.80;;;2.70;;
2434;SDS011;1228;51.022;6.764;2023-05-07T12:10:44;4.28;;;4.07;;
2434;SDS011;1228;51.022;6.764;2023-05-07T12:13:14;4.53;;;4.32;;
2434;SDS011;1228;51.022;6.764;2023-05-07T12:15:43;4.18;;;3.88;;
2434;SDS011;1228;51.022;6.764;2023-05-07T12:18:09;3.40;;;3.20;;
2434;SDS011;1228;51.022;6.764;2023-05-07T12:20:36;3.20;;;3.05;;
2434;SDS011;1228;51.022;6.764;2023-05-07T12:23:02;4.15;;;3.95;;
2434;SDS011;1228;51.022;6.764;2023-05-07T12:25:31;4.38;;;4.18;;
2434;SDS011;1228;51.022;6.764;2023-05-07T12:28:04;3.67;;;3.47;;
2434;SDS011;1228;51.022;6.764;2023-05-07T12:30:40;3.55;;;3.35;;
2434;SDS011;1228;51.022;6.764;2023-05-07T12:33:06;4.72;;;4.53;;
2434;SDS011;1228;51.022;6.764;2023-05-07T12:35:36;3.38;;;3.17;;
2434;SDS011;1228;51.022;6.764;2023-05-07T12:38:07;3.60;;;3.40;;
2434;SDS011;1228;51.022;6.764;2023-05-07T12:40:53;3.42;;;3.22;;
2434;SDS011;1228;51.022;6.764;2023-05-07T12:43:20;3.70;;;3.50;;
2434;SDS011;1228;51.022;6.764;2023-05-07T12:45:49;3.42;;;3.17;;
2434;SDS011;1228;51.022;6.764;2023-05-07T12:48:16;2.97;;;2.88;;
2434;SDS011;1228;51.022;6.764;2023-05-07T12:50:42;3.40;;;3.20;;
2434;SDS011;1228;51.022;6.764;2023-05-07T12:53:09;3.45;;;3.30;;
2434;SDS011;1228;51.022;6.764;2023-05-07T12:55:47;3.35;;;3.20;;
2434;SDS011;1228;51.022;6.764;2023-05-07T13:00:43;4.20;;;4.00;;
2434;SDS011;1228;51.022;6.764;2023-05-07T13:03:10;4.53;;;4.22;;
2434;SDS011;1228;51.022;6.764;2023-05-07T13:05:36;3.75;;;3.45;;
2434;SDS011;1228;51.022;6.764;2023-05-07T13:08:02;3.58;;;3.28;;
2434;SDS011;1228;51.022;6.764;2023-05-07T13:10:27;4.30;;;4.03;;
2434;SDS011;1228;51.022;6.764;2023-05-07T13:12:53;5.35;;;5.05;;
2434;SDS011;1228;51.022;6.764;2023-05-07T13:15:19;3.10;;;2.90;;
2434;SDS011;1228;51.022;6.764;2023-05-07T13:17:46;3.70;;;3.50;;
2434;SDS011;1228;51.022;6.764;2023-05-07T13:20:12;4.95;;;4.70;;
2434;SDS011;1228;51.022;6.764;2023-05-07T13:22:37;4.20;;;4.00;;
2434;SDS011;1228;51.022;6.764;2023-05-07T13:25:04;3.83;;;3.58;;
2434;SDS011;1228;51.022;6.764;2023-05-07T13:27:30;4.55;;;4.15;;
2434;SDS011;1228;51.022;6.764;2023-05-07T13:29:56;3.33;;;3.17;;
2434;SDS011;1228;51.022;6.764;2023-05-07T13:32:22;2.80;;;2.70;;
2434;SDS011;1228;51.022;6.764;2023-05-07T13:34:47;4.32;;;4.13;;
2434;SDS011;1228;51.022;6.764;2023-05-07T13:37:13;4.57;;;3.47;;
2434;SDS011;1228;51.022;6.764;2023-05-07T13:39:39;3.75;;;3.45;;
2434;SDS011;1228;51.022;6.764;2023-05-07T13:42:05;4.07;;;3.63;;
2434;SDS011;1228;51.022;6.764;2023-05-07T13:44:31;3.88;;;3.30;;
2434;SDS011;1228;51.022;6.764;2023-05-07T13:46:57;3.60;;;3.40;;
2434;SDS011;1228;51.022;6.764;2023-05-07T13:49:23;4.85;;;4.55;;
2434;SDS011;1228;51.022;6.764;2023-05-07T13:51:49;4.00;;;3.80;;
2434;SDS011;1228;51.022;6.764;2023-05-07T13:54:14;4.45;;;4.00;;
2434;SDS011;1228;51.022;6.764;2023-05-07T13:56:40;4.88;;;4.57;;
2434;SDS011;1228;51.022;6.764;2023-05-07T13:59:06;4.07;;;3.88;;
2434;SDS011;1228;51.022;6.764;2023-05-07T14:01:32;4.38;;;3.97;;
2434;SDS011;1228;51.022;6.764;2023-05-07T14:03:57;4.97;;;4.65;;
2434;SDS011;1228;51.022;6.764;2023-05-07T14:06:24;4.18;;;3.78;;
2434;SDS011;1228;51.022;6.764;2023-05-07T14:08:50;4.18;;;3.88;;
2434;SDS011;1228;51.022;6.764;2023-05-07T14:11:15;6.82;;;6.13;;
2434;SDS011;1228;51.022;6.764;2023-05-07T14:13:41;6.60;;;6.20;;
2434;SDS011;1228;51.022;6.764;2023-05-07T14:16:07;6.30;;;5.90;;
2434;SDS011;1228;51.022;6.764;2023-05-07T14:18:32;5.50;;;5.07;;
2434;SDS011;1228;51.022;6.764;2023-05-07T14:20:59;6.85;;;6.35;;
2434;SDS011;1228;51.022;6.764;2023-05-07T14:23:25;8.57;;;8.07;;
2434;SDS011;1228;51.022;6.764;2023-05-07T14:25:51;6.28;;;5.78;;
2434;SDS011;1228;51.022;6.764;2023-05-07T14:28:18;17.52;;;16.65;;
2434;SDS011;1228;51.022;6.764;2023-05-07T14:30:44;4.43;;;4.22;;
2434;SDS011;1228;51.022;6.764;2023-05-07T14:33:09;9.38;;;8.93;;
2434;SDS011;1228;51.022;6.764;2023-05-07T14:35:35;3.30;;;3.20;;
2434;SDS011;1228;51.022;6.764;2023-05-07T14:38:01;4.65;;;4.45;;
2434;SDS011;1228;51.022;6.764;2023-05-07T14:40:26;4.13;;;3.92;;
2434;SDS011;1228;51.022;6.764;2023-05-07T14:42:52;3.72;;;3.53;;
2434;SDS011;1228;51.022;6.764;2023-05-07T14:45:17;5.97;;;5.68;;
2434;SDS011;1228;51.022;6.764;2023-05-07T14:47:43;7.45;;;7.15;;
2434;SDS011;1228;51.022;6.764;2023-05-07T14:50:09;6.22;;;5.82;;
2434;SDS011;1228;51.022;6.764;2023-05-07T14:52:34;5.20;;;4.90;;
2434;SDS011;1228;51.022;6.764;2023-05-07T14:55:00;3.83;;;3.53;;
2434;SDS011;1228;51.022;6.764;2023-05-07T14:57:25;3.97;;;3.78;;
2434;SDS011;1228;51.022;6.764;2023-05-07T14:59:51;4.45;;;4.15;;
2434;SDS011;1228;51.022;6.764;2023-05-07T15:02:17;5.95;;;5.65;;
2434;SDS011;1228;51.022;6.764;2023-05-07T15:04:43;4.95;;;4.65;;
2434;SDS011;1228;51.022;6.764;2023-05-07T15:07:11;4.90;;;4.60;;
2434;SDS011;1228;51.022;6.764;2023-05-07T15:09:40;5.20;;;4.80;;
2434;SDS011;1228;51.022;6.764;2023-05-07T15:12:09;6.07;;;5.78;;
2434;SDS011;1228;51.022;6.764;2023-05-07T15:14:34;6.78;;;6.47;;
2434;SDS011;1228;51.022;6.764;2023-05-07T15:17:00;7.75;;;7.38;;
2434;SDS011;1228;51.022;6.764;2023-05-07T15:19:26;3.65;;;3.45;;
2434;SDS011;1228;51.022;6.764;2023-05-07T15:21:57;3.63;;;3.42;;
2434;SDS011;1228;51.022;6.764;2023-05-07T15:24:24;3.33;;;3.13;;
2434;SDS011;1228;51.022;6.764;2023-05-07T15:26:51;4.43;;;4.22;;
2434;SDS011;1228;51.022;6.764;2023-05-07T15:29:17;3.55;;;3.35;;
2434;SDS011;1228;51.022;6.764;2023-05-07T15:31:43;3.95;;;3.65;;
2434;SDS011;1228;51.022;6.764;2023-05-07T15:34:09;4.32;;;4.03;;
2434;SDS011;1228;51.022;6.764;2023-05-07T15:36:35;4.47;;;4.07;;